Tolley, ND (58787)

3:29 PM CDT on September 02, 2014 (GMT -0500)
East End Behind Tesoro | Change Station
CLOSE
Current Station
Personal Weather Station
Location: Mohall, ND
Elevation: 1631 ft
Nearby Weather Stations

Elev 1631 ft 48.77 °N, 101.50 °W | Updated 3 seconds ago

Partly Cloudy
Partly Cloudy
73.1 °F
Feels Like 77 °F
N
10.8
Wind Variable Wind from NW
Gusts 18.4 mph

Today
High -- | Low -- °F
--% Chance of Precip.
Yesterday
High -- | Low -- °F
Precip. -- in
7:05 AM 8:27 PM
First Quarter, 54% visible
Pressure 29.73 in
Visibility 10.0 miles
Clouds Clear
Heat Index 77 °F
Dew Point 49 °F
Humidity 42%
Rainfall 0.02 in
Snow Depth Not available.
UV 3.1 out of 12
Pollen 9.00 out of 12
Air Quality Not available.
Flu Activity Not available.
METAR KMIB 021958Z AUTO 30014G22KT 10SM CLR 23/10 A2972 RMK AO2 SLP068 T02310100 $

More Conditions Fewer Conditions

Pressure 29.73 in
Visibility 10.0 miles
Clouds Clear
Heat Index 77 °F
Dew Point 49 °F
Humidity 42%
Rainfall 0.02 in
Snow Depth Not available.
UV 3.1 out of 12
Pollen 9.00 out of 12
Air Quality Not available.
Flu Activity Not available.
METAR KMIB 021958Z AUTO 30014G22KT 10SM CLR 23/10 A2972 RMK AO2 SLP068 T02310100 $

More Conditions Fewer Conditions

10-Day Weather Forecast

Almanac

Astronomy

Sep. 02, 2014 Rise Set
Actual Time 7:05 AM CDT 8:27 PM CDT
Civil Twilight 6:33 AM CDT 9:00 PM CDT
Nautical Twilight 5:53 AM CDT 9:39 PM CDT
Astronomical Twilight 5:10 AM CDT 10:22 PM CDT
Moon 3:28 PM CDT No Moon Set
Length of Visible Light 14h 26m
Length of Day
13h 21m
Tomorrow will be 3m 29s shorter.
First Quarter, 54% of the Moon is Illuminated
Today
First Quarter
Sep 8
Full
Sep 15
Last Quarter
Sep 24
New
Oct 1
First Quarter

Today's Extremes

State Highs State Lows

Community

WunderPhotos

Upload Photos

1,749,757 photos uploaded!

WunderBlogs® & News

By Dr. Jeff Masters
Director of Meteorology, Weather Underground
By Kari Strenfel
Meteorologist, Weather Underground
By Christopher C. Burt
Weather Historian, Weather Underground
September 2, 2014
September 2, 2014
September 2, 2014

Nearby

Snow Depth

Station Depth Elevation
No new snow has been reported.

Earthquake Activity

City Distance Mag. Time & Date
No recent earthquake activity has been reported nearby.
Minimum magnitude displayed is 2.5.

Coastal Water Temperatures

Place Temperature
No Stations Reporting

Nearby Weather Stations